Portada
METAR-TAF:

METAR-TAF

Aeropuertos :

Colmenar Viejo, España

latitud: 40-39N, longitud: 003-44W, altitud: -999 m

Observación

El informe se hizo hace 6 horas y 38 minutos, a las 18:00 UTC
Viento 3 kt del suroeste
Temperatura 17°C
Humedad 45%
Presión 1018 hPa
Visibilidad 10 km o más
sin nubes por debajo de 1500 m y sin presencia de cumulonimbus.

METAR: LECV 191800Z 22003KT CAVOK 17/05 Q1018

Hora: 02:38 (00:38 UTC)

Pronóstico

El informe se hizo hace 1 hora y 38 minutos, a las 23:00 UTC
Pronóstico válido del 20 a las 00 UTC al 20 a las 24 UTC
Viento 5 kt del norte-noreste
Visibilidad 10 km o más
sin nubes por debajo de 1500 m y sin presencia de cumulonimbus.

TAF: LECV 192300Z 2000/2024 03005KT CAVOK TX19/2016Z TN09/2006Z

Observaciones y pronósticos meteorológicos de más de 4000 aeropuertos (mensajes METAR y TAF).

Los puntos amarillos y rojos representan las estaciones disponibles.

Ponga el ratón en el punto deseado para ver el nombre de la estación.

Haga clic para ver las observaciones y los pronósticos meteorológicos.

Para cambiar el mapa : haga clic en los botones verdes con una cruz de color negro para hacer un zoom, en el botón verde con un guión para alejar o en las flechas verdes para mapas adyacentes.


METAR-TAF: